Mont Saint Michel — FNMT — position and weather

sailwx.info

Track history (hours):
 
Tides and Currents Weather Stations Pressure Air Temp Water Temp Dewpoint Dewpoint Depression Visibility Wind Speed Wind Dir Waves Ship Positions

Mont Saint Michel

Last reported at 2015-Mar-28 18:33 UTC. Time now 2015-Mar-28 18:52 UTC.
Position N 49°49' W 000°28'.

Length 173 m; beam 29 m.

Type: Ship. MMSI: 227023100.

Date/timePositionNaut miles runAvg speedWind from/ knotsBaromVisibWave heightAir tempDewpointWater temp
2015-Mar-28 18:33N 49°49' W 000°28'4020.2
2015-Mar-28 16:33N 50°27' W 000°50'1919.5
2015-Mar-28 15:33N 50°44' W 001°04'5 4.8
2015-Mar-28 14:34N 50°49' W 001°06'0 0.0
2015-Mar-28 13:34N 50°49' W 001°06'5 5.0
2015-Mar-28 12:33N 50°44' W 001°03'1818.2
2015-Mar-28 11:33N 50°27' W 000°51'3919.3
2015-Mar-28 09:33N 49°51' W 000°32'2019.9
2015-Mar-28 08:33N 49°32' W 000°21'1515.5
2015-Mar-28 07:34N 49°17' W 000°15'0 0.0
2015-Mar-28 06:34N 49°17' W 000°15'0 0.1
2015-Mar-28 05:33N 49°17' W 000°15'1414.2
2015-Mar-28 04:33N 49°31' W 000°20'1211.5
2015-Mar-28 03:33N 49°42' W 000°25'1211.6
2015-Mar-28 02:33N 49°53' W 000°30'2914.6
2015-Mar-28 00:33N 50°20' W 000°47'1616.0
2015-Mar-27 23:33N 50°35' W 000°56'1413.6
2015-Mar-27 22:33N 50°47' W 001°06'2 1.6
2015-Mar-27 21:33N 50°49' W 001°06'0 0.0
2015-Mar-27 20:33N 50°49' W 001°06'0 0.0
2015-Mar-27 19:33N 50°49' W 001°06'3 3.4
2015-Mar-27 18:34N 50°45' W 001°05'1918.8
2015-Mar-27 17:33N 50°29' W 000°51'3517.4
2015-Mar-27 15:33N 49°56' W 000°33'1818.3
2015-Mar-27 14:33N 49°39' W 000°24'1817.9
2015-Mar-27 13:33N 49°22' W 000°15'4 4.4
2015-Mar-27 12:33N 49°17' W 000°15'0 0.0
2015-Mar-27 11:33N 49°17' W 000°15'0 0.0
2015-Mar-27 10:33N 49°17' W 000°15'0 0.0
2015-Mar-27 09:30N 49°17' W 000°15'0 0.0
2015-Mar-27 08:27N 49°17' W 000°15'0 0.0
2015-Mar-27 07:33N 49°17' W 000°15'0 0.0
2015-Mar-27 06:33N 49°17' W 000°15'1111.2
2015-Mar-27 05:33N 49°28' W 000°18'1413.5
2015-Mar-27 04:33N 49°41' W 000°25'1111.5
2015-Mar-27 03:33N 49°52' W 000°32'1211.8
2015-Mar-27 02:33N 50°03' W 000°38'1514.9
2015-Mar-27 01:33N 50°17' W 000°45'1616.0
2015-Mar-27 00:33N 50°32' W 000°52'1615.7
2015-Mar-26 23:33N 50°46' W 001°05'3 3.1
2015-Mar-26 22:33N 50°49' W 001°06'0 0.0
2015-Mar-26 21:33N 50°49' W 001°06'5 5.4
2015-Mar-26 20:33N 50°44' W 001°02'1818.4
2015-Mar-26 19:33N 50°27' W 000°52'2719.0
2015-Mar-26 18:09N 50°01' W 000°37'1119.2
2015-Mar-26 17:33N 49°51' W 000°31'2019.7
2015-Mar-26 16:34N 49°32' W 000°21'1515.4
2015-Mar-26 15:33N 49°17' W 000°15'0 0.0
2015-Mar-26 14:33N 49°17' W 000°15'2 2.2
2015-Mar-26 13:34N 49°20' W 000°15'2120.5
2015-Mar-26 12:34N 49°39' W 000°24'4721.1
2015-Mar-26 10:21N 50°23' W 000°51'1620.1
2015-Mar-26 09:33N 50°38' W 000°58'1212.0
2015-Mar-26 08:33N 50°49' W 001°06'0 0.0
2015-Mar-26 07:33N 50°49' W 001°06'0 0.1
2015-Mar-26 06:34N 50°49' W 001°06'1413.7
2015-Mar-26 05:34N 50°36' W 000°57'1212.1
2015-Mar-26 04:33N 50°26' W 000°48'2712.6
2015-Mar-26 02:27N 49°60' W 000°37'1214.1
2015-Mar-26 01:33N 49°48' W 000°31'1414.1
2015-Mar-26 00:33N 49°35' W 000°24'1414.4
2015-Mar-25 23:33N 49°22' W 000°15'4 4.3
2015-Mar-25 22:34N 49°17' W 000°15'0 0.0
2015-Mar-25 21:34N 49°17' W 000°15'1111.1
2015-Mar-25 20:33N 49°28' W 000°17'2120.7
2015-Mar-25 19:33N 49°47' W 000°32'2920.4
2015-Mar-25 18:09N 50°14' W 000°45'1321.0
2015-Mar-25 17:33N 50°26' W 000°52'2019.9
2015-Mar-25 16:33N 50°44' W 001°04'5 4.7
2015-Mar-25 15:33N 50°49' W 001°06'0 0.0
2015-Mar-25 14:33N 50°49' W 001°06'1 0.5
2015-Mar-25 13:33N 50°49' W 001°07'10 9.6
2015-Mar-25 12:33N 50°40' W 000°59'2020.3
2015-Mar-25 11:33N 50°21' W 000°47'2420.1
2015-Mar-25 10:22N 49°58' W 000°36'1619.7
2015-Mar-25 09:33N 49°44' W 000°28'2019.7
2015-Mar-25 08:33N 49°25' W 000°17'8 7.9
2015-Mar-25 07:33N 49°17' W 000°15'0 0.0
2015-Mar-25 06:33N 49°17' W 000°15'0 0.0
2015-Mar-25 05:33N 49°17' W 000°15'0 0.0
2015-Mar-25 04:33N 49°17' W 000°15'0 0.0
2015-Mar-25 03:33N 49°17' W 000°15'0 0.0
2015-Mar-25 02:33N 49°17' W 000°15'0 0.0
2015-Mar-25 01:33N 49°17' W 000°15'0 0.0
2015-Mar-25 00:33N 49°17' W 000°15'0 0.0
2015-Mar-24 23:33N 49°17' W 000°15'0 0.0
2015-Mar-24 22:33N 49°17' W 000°15'0 0.0
2015-Mar-24 21:33N 49°17' W 000°15'0 0.0
2015-Mar-24 20:33N 49°17' W 000°15'0 0.0
2015-Mar-24 19:33N 49°17' W 000°15'0 0.0
2015-Mar-24 18:33N 49°17' W 000°15'0 0.0
2015-Mar-24 17:33N 49°17' W 000°15'0 0.0
2015-Mar-24 16:31N 49°17' W 000°15'0 0.0
2015-Mar-24 15:28N 49°17' W 000°15'0 0.0
2015-Mar-24 14:32N 49°17' W 000°15'0 0.0
2015-Mar-24 13:32N 49°17' W 000°15'0 0.0
2015-Mar-24 12:32N 49°17' W 000°15'0 0.0
2015-Mar-24 11:32N 49°17' W 000°15'0 0.0
2015-Mar-24 10:32N 49°17' W 000°15'0 0.0
2015-Mar-24 09:32N 49°17' W 000°15'0 0.0
2015-Mar-24 08:32N 49°17' W 000°15'0 0.0
2015-Mar-24 07:32N 49°17' W 000°15'0 0.0
2015-Mar-24 06:32N 49°17' W 000°15'0 0.0
2015-Mar-24 05:32N 49°17' W 000°15'0 0.0
2015-Mar-24 04:32N 49°17' W 000°15'0 0.0
2015-Mar-24 03:33N 49°17' W 000°15'0 0.0
2015-Mar-24 02:33N 49°17' W 000°15'0 0.0
2015-Mar-24 01:33N 49°17' W 000°15'0 0.0
2015-Mar-24 00:33N 49°17' W 000°15'0 0.0
2015-Mar-23 23:33N 49°17' W 000°15'0 0.0
2015-Mar-23 22:33N 49°17' W 000°15'0 0.0
2015-Mar-23 21:33N 49°17' W 000°15'0 0.0
2015-Mar-23 20:33N 49°17' W 000°15'1111.0
2015-Mar-23 19:33N 49°28' W 000°17'1919.0
2015-Mar-23 18:34N 49°46' W 000°28'3718.4
2015-Mar-23 16:33N 50°20' W 000°49'1918.7
2015-Mar-23 15:34N 50°38' W 000°58'1211.9
2015-Mar-23 14:33N 50°49' W 001°06'0 0.0
2015-Mar-23 13:33N 50°49' W 001°06'3 3.3
2015-Mar-23 12:34N 50°45' W 001°05'2019.7
2015-Mar-23 11:33N 50°28' W 000°51'3020.3
2015-Mar-23 10:05N 49°60' W 000°35'1019.9
2015-Mar-23 09:33N 49°50' W 000°30'2019.6
2015-Mar-23 08:33N 49°31' W 000°20'1414.3
2015-Mar-23 07:33N 49°17' W 000°15'0 0.0
2015-Mar-23 06:33N 49°17' W 000°15'0 0.1
2015-Mar-23 05:33N 49°17' W 000°15'1615.9
2015-Mar-23 04:34N 49°33' W 000°22'1717.0
2015-Mar-23 03:33N 49°48' W 000°33'4214.0
2015-Mar-23 00:33N 50°28' W 000°54'1615.7
2015-Mar-22 23:33N 50°43' W 001°00'7 6.7
2015-Mar-22 22:33N 50°49' W 001°06'0 0.0
2015-Mar-22 21:33N 50°49' W 001°06'6 5.7
2015-Mar-22 20:34N 50°44' W 001°02'1717.4
2015-Mar-22 19:33N 50°27' W 000°52'3919.3
2015-Mar-22 17:33N 49°51' W 000°33'2019.6
2015-Mar-22 16:33N 49°33' W 000°22'1615.9
2015-Mar-22 15:33N 49°17' W 000°15'0 0.0
2015-Mar-22 14:34N 49°17' W 000°15'3 3.3
2015-Mar-22 13:34N 49°21' W 000°14'1918.7
2015-Mar-22 12:33N 49°38' W 000°26'4119.5
2015-Mar-22 10:27N 50°17' W 000°45'1819.7
2015-Mar-22 09:34N 50°33' W 000°55'1615.9
2015-Mar-22 08:33N 50°47' W 001°07'1 1.3
2015-Mar-22 07:33N 50°49' W 001°06'0 0.5
2015-Mar-22 06:33N 50°49' W 001°07'1312.6
2015-Mar-22 05:34N 50°37' W 000°59'1514.8
2015-Mar-22 04:33N 50°23' W 000°51'3311.0
2015-Mar-22 01:33N 49°53' W 000°32'1110.8
2015-Mar-22 00:33N 49°42' W 000°27'1110.8
2015-Mar-21 23:34N 49°32' W 000°21'1110.8
2015-Mar-21 22:33N 49°22' W 000°15'5 4.7
2015-Mar-21 21:34N 49°17' W 000°15'0 0.0
2015-Mar-21 20:34N 49°17' W 000°15'1111.5
2015-Mar-21 19:33N 49°29' W 000°16'1817.5
2015-Mar-21 18:33N 49°45' W 000°28'3819.0
2015-Mar-21 16:32N 50°21' W 000°49'1919.7
2015-Mar-21 15:34N 50°39' W 000°58'1110.9
2015-Mar-21 14:33N 50°49' W 001°06'0 0.0
2015-Mar-21 13:33N 50°49' W 001°06'4 4.1
2015-Mar-21 12:33N 50°45' W 001°05'2020.4
2015-Mar-21 11:33N 50°27' W 000°50'2920.6
2015-Mar-21 10:10N 49°60' W 000°35'1220.2
2015-Mar-21 09:33N 49°48' W 000°29'2020.2
2015-Mar-21 08:33N 49°29' W 000°19'1211.8
2015-Mar-21 07:33N 49°17' W 000°15'0 0.0
2015-Mar-21 06:33N 49°17' W 000°15'6 5.9
2015-Mar-21 05:33N 49°23' W 000°15'1212.1
2015-Mar-21 04:33N 49°35' W 000°19'1211.8
2015-Mar-21 03:33N 49°46' W 000°25'2411.0
2015-Mar-21 01:20N 50°09' W 000°38'1114.6
2015-Mar-21 00:33N 50°19' W 000°47'1616.0
2015-Mar-20 23:33N 50°34' W 000°56'1413.8
2015-Mar-20 22:33N 50°46' W 001°05'2 2.4
2015-Mar-20 21:33N 50°49' W 001°06'0 0.0
2015-Mar-20 20:33N 50°49' W 001°06'0 0.0
2015-Mar-20 19:33N 50°49' W 001°06'5 5.4
2015-Mar-20 18:33N 50°44' W 001°02'1817.8
2015-Mar-20 17:33N 50°27' W 000°52'2319.5
2015-Mar-20 16:22N 50°06' W 000°39'1619.9
2015-Mar-20 15:33N 49°51' W 000°30'2019.5
2015-Mar-20 14:33N 49°32' W 000°20'1515.1
2015-Mar-20 13:33N 49°17' W 000°15'0 0.0
2015-Mar-20 12:33N 49°17' W 000°15'0 0.0
2015-Mar-20 11:33N 49°17' W 000°15'0 0.0
2015-Mar-20 10:33N 49°17' W 000°15'0 0.0
2015-Mar-20 09:33N 49°17' W 000°15'0 0.0
2015-Mar-20 08:33N 49°17' W 000°15'0 0.0
2015-Mar-20 07:33N 49°17' W 000°15'0 0.0
2015-Mar-20 06:33N 49°17' W 000°15'1010.0
2015-Mar-20 05:34N 49°27' W 000°18'1414.3
2015-Mar-20 04:33N 49°41' W 000°26'1111.3
2015-Mar-20 03:33N 49°51' W 000°31'4915.7
2015-Mar-20 00:28N 50°37' W 000°58'1112.5
2015-Mar-19 23:33N 50°47' W 001°06'2 1.9
2015-Mar-19 22:33N 50°49' W 001°06'0 0.0
2015-Mar-19 21:33N 50°49' W 001°06'9 9.4
2015-Mar-19 20:33N 50°40' W 000°60'4719.8
2015-Mar-19 18:10N 49°55' W 000°35'1219.7
2015-Mar-19 17:33N 49°44' W 000°29'2019.9
2015-Mar-19 16:33N 49°26' W 000°17'9 8.5
2015-Mar-19 15:34N 49°17' W 000°15'0 0.0
2015-Mar-19 14:34N 49°17' W 000°15'2 2.5
2015-Mar-19 13:33N 49°20' W 000°14'1919.4
2015-Mar-19 12:33N 49°38' W 000°24'4319.4
2015-Mar-19 10:19N 50°19' W 000°48'1519.9
2015-Mar-19 09:33N 50°33' W 000°56'1716.6
2015-Mar-19 08:33N 50°48' W 001°07'1 0.9
2015-Mar-19 07:33N 50°49' W 001°06'0 0.1
2015-Mar-19 06:34N 50°49' W 001°06'1212.1
2015-Mar-19 05:33N 50°38' W 000°58'1714.4
2015-Mar-19 04:24N 50°22' W 000°49'2611.1
2015-Mar-19 02:03N 49°57' W 000°36'611.2
2015-Mar-19 01:33N 49°52' W 000°33'1211.6
2015-Mar-19 00:33N 49°41' W 000°27'1111.1
2015-Mar-18 23:33N 49°31' W 000°21'1111.0
2015-Mar-18 22:33N 49°21' W 000°14'3 3.2
2015-Mar-18 21:34N 49°17' W 000°15'0 0.0
2015-Mar-18 20:34N 49°17' W 000°15'1212.0
2015-Mar-18 19:34N 49°29' W 000°16'1919.3
2015-Mar-18 18:34N 49°47' W 000°27'  
Track history (hours):
 
Tides and Currents Weather Stations Pressure Air Temp Water Temp Dewpoint Dewpoint Depression Visibility Wind Speed Wind Dir Waves Ship Positions

Mont Saint Michel

Last reported at 2015-Mar-28 18:33 UTC. Time now 2015-Mar-28 18:52 UTC.
Position N 49°49' W 000°28'.

Length 173 m; beam 29 m.

Type: Ship. MMSI: 227023100.

Date/timePositionNaut miles runAvg speedWind from/ knotsBaromVisibWave heightAir tempDewpointWater temp
2015-Mar-28 18:33N 49°49' W 000°28'4020.2
2015-Mar-28 16:33N 50°27' W 000°50'1919.5
2015-Mar-28 15:33N 50°44' W 001°04'5 4.8
2015-Mar-28 14:34N 50°49' W 001°06'0 0.0
2015-Mar-28 13:34N 50°49' W 001°06'5 5.0
2015-Mar-28 12:33N 50°44' W 001°03'1818.2
2015-Mar-28 11:33N 50°27' W 000°51'3919.3
2015-Mar-28 09:33N 49°51' W 000°32'2019.9
2015-Mar-28 08:33N 49°32' W 000°21'1515.5
2015-Mar-28 07:34N 49°17' W 000°15'0 0.0
2015-Mar-28 06:34N 49°17' W 000°15'0 0.1
2015-Mar-28 05:33N 49°17' W 000°15'1414.2
2015-Mar-28 04:33N 49°31' W 000°20'1211.5
2015-Mar-28 03:33N 49°42' W 000°25'1211.6
2015-Mar-28 02:33N 49°53' W 000°30'2914.6
2015-Mar-28 00:33N 50°20' W 000°47'1616.0
2015-Mar-27 23:33N 50°35' W 000°56'1413.6
2015-Mar-27 22:33N 50°47' W 001°06'2 1.6
2015-Mar-27 21:33N 50°49' W 001°06'0 0.0
2015-Mar-27 20:33N 50°49' W 001°06'0 0.0
2015-Mar-27 19:33N 50°49' W 001°06'3 3.4
2015-Mar-27 18:34N 50°45' W 001°05'1918.8
2015-Mar-27 17:33N 50°29' W 000°51'3517.4
2015-Mar-27 15:33N 49°56' W 000°33'1818.3
2015-Mar-27 14:33N 49°39' W 000°24'1817.9
2015-Mar-27 13:33N 49°22' W 000°15'4 4.4
2015-Mar-27 12:33N 49°17' W 000°15'0 0.0
2015-Mar-27 11:33N 49°17' W 000°15'0 0.0
2015-Mar-27 10:33N 49°17' W 000°15'0 0.0
2015-Mar-27 09:30N 49°17' W 000°15'0 0.0
2015-Mar-27 08:27N 49°17' W 000°15'0 0.0
2015-Mar-27 07:33N 49°17' W 000°15'0 0.0
2015-Mar-27 06:33N 49°17' W 000°15'1111.2
2015-Mar-27 05:33N 49°28' W 000°18'1413.5
2015-Mar-27 04:33N 49°41' W 000°25'1111.5
2015-Mar-27 03:33N 49°52' W 000°32'1211.8
2015-Mar-27 02:33N 50°03' W 000°38'1514.9
2015-Mar-27 01:33N 50°17' W 000°45'1616.0
2015-Mar-27 00:33N 50°32' W 000°52'1615.7
2015-Mar-26 23:33N 50°46' W 001°05'3 3.1
2015-Mar-26 22:33N 50°49' W 001°06'0 0.0
2015-Mar-26 21:33N 50°49' W 001°06'5 5.4
2015-Mar-26 20:33N 50°44' W 001°02'1818.4
2015-Mar-26 19:33N 50°27' W 000°52'2719.0
2015-Mar-26 18:09N 50°01' W 000°37'1119.2
2015-Mar-26 17:33N 49°51' W 000°31'2019.7
2015-Mar-26 16:34N 49°32' W 000°21'1515.4
2015-Mar-26 15:33N 49°17' W 000°15'0 0.0
2015-Mar-26 14:33N 49°17' W 000°15'2 2.2
2015-Mar-26 13:34N 49°20' W 000°15'2120.5
2015-Mar-26 12:34N 49°39' W 000°24'4721.1
2015-Mar-26 10:21N 50°23' W 000°51'1620.1
2015-Mar-26 09:33N 50°38' W 000°58'1212.0
2015-Mar-26 08:33N 50°49' W 001°06'0 0.0
2015-Mar-26 07:33N 50°49' W 001°06'0 0.1
2015-Mar-26 06:34N 50°49' W 001°06'1413.7
2015-Mar-26 05:34N 50°36' W 000°57'1212.1
2015-Mar-26 04:33N 50°26' W 000°48'2712.6
2015-Mar-26 02:27N 49°60' W 000°37'1214.1
2015-Mar-26 01:33N 49°48' W 000°31'1414.1
2015-Mar-26 00:33N 49°35' W 000°24'1414.4
2015-Mar-25 23:33N 49°22' W 000°15'4 4.3
2015-Mar-25 22:34N 49°17' W 000°15'0 0.0
2015-Mar-25 21:34N 49°17' W 000°15'1111.1
2015-Mar-25 20:33N 49°28' W 000°17'2120.7
2015-Mar-25 19:33N 49°47' W 000°32'2920.4
2015-Mar-25 18:09N 50°14' W 000°45'1321.0
2015-Mar-25 17:33N 50°26' W 000°52'2019.9
2015-Mar-25 16:33N 50°44' W 001°04'5 4.7
2015-Mar-25 15:33N 50°49' W 001°06'0 0.0
2015-Mar-25 14:33N 50°49' W 001°06'1 0.5
2015-Mar-25 13:33N 50°49' W 001°07'10 9.6
2015-Mar-25 12:33N 50°40' W 000°59'2020.3
2015-Mar-25 11:33N 50°21' W 000°47'2420.1
2015-Mar-25 10:22N 49°58' W 000°36'1619.7
2015-Mar-25 09:33N 49°44' W 000°28'2019.7
2015-Mar-25 08:33N 49°25' W 000°17'8 7.9
2015-Mar-25 07:33N 49°17' W 000°15'0 0.0
2015-Mar-25 06:33N 49°17' W 000°15'0 0.0
2015-Mar-25 05:33N 49°17' W 000°15'0 0.0
2015-Mar-25 04:33N 49°17' W 000°15'0 0.0
2015-Mar-25 03:33N 49°17' W 000°15'0 0.0
2015-Mar-25 02:33N 49°17' W 000°15'0 0.0
2015-Mar-25 01:33N 49°17' W 000°15'0 0.0
2015-Mar-25 00:33N 49°17' W 000°15'0 0.0
2015-Mar-24 23:33N 49°17' W 000°15'0 0.0
2015-Mar-24 22:33N 49°17' W 000°15'0 0.0
2015-Mar-24 21:33N 49°17' W 000°15'0 0.0
2015-Mar-24 20:33N 49°17' W 000°15'0 0.0
2015-Mar-24 19:33N 49°17' W 000°15'0 0.0
2015-Mar-24 18:33N 49°17' W 000°15'0 0.0
2015-Mar-24 17:33N 49°17' W 000°15'0 0.0
2015-Mar-24 16:31N 49°17' W 000°15'0 0.0
2015-Mar-24 15:28N 49°17' W 000°15'0 0.0
2015-Mar-24 14:32N 49°17' W 000°15'0 0.0
2015-Mar-24 13:32N 49°17' W 000°15'0 0.0
2015-Mar-24 12:32N 49°17' W 000°15'0 0.0
2015-Mar-24 11:32N 49°17' W 000°15'0 0.0
2015-Mar-24 10:32N 49°17' W 000°15'0 0.0
2015-Mar-24 09:32N 49°17' W 000°15'0 0.0
2015-Mar-24 08:32N 49°17' W 000°15'0 0.0
2015-Mar-24 07:32N 49°17' W 000°15'0 0.0
2015-Mar-24 06:32N 49°17' W 000°15'0 0.0
2015-Mar-24 05:32N 49°17' W 000°15'0 0.0
2015-Mar-24 04:32N 49°17' W 000°15'0 0.0
2015-Mar-24 03:33N 49°17' W 000°15'0 0.0
2015-Mar-24 02:33N 49°17' W 000°15'0 0.0
2015-Mar-24 01:33N 49°17' W 000°15'0 0.0
2015-Mar-24 00:33N 49°17' W 000°15'0 0.0
2015-Mar-23 23:33N 49°17' W 000°15'0 0.0
2015-Mar-23 22:33N 49°17' W 000°15'0 0.0
2015-Mar-23 21:33N 49°17' W 000°15'0 0.0
2015-Mar-23 20:33N 49°17' W 000°15'1111.0
2015-Mar-23 19:33N 49°28' W 000°17'1919.0
2015-Mar-23 18:34N 49°46' W 000°28'3718.4
2015-Mar-23 16:33N 50°20' W 000°49'1918.7
2015-Mar-23 15:34N 50°38' W 000°58'1211.9
2015-Mar-23 14:33N 50°49' W 001°06'0 0.0
2015-Mar-23 13:33N 50°49' W 001°06'3 3.3
2015-Mar-23 12:34N 50°45' W 001°05'2019.7
2015-Mar-23 11:33N 50°28' W 000°51'3020.3
2015-Mar-23 10:05N 49°60' W 000°35'1019.9
2015-Mar-23 09:33N 49°50' W 000°30'2019.6
2015-Mar-23 08:33N 49°31' W 000°20'1414.3
2015-Mar-23 07:33N 49°17' W 000°15'0 0.0
2015-Mar-23 06:33N 49°17' W 000°15'0 0.1
2015-Mar-23 05:33N 49°17' W 000°15'1615.9
2015-Mar-23 04:34N 49°33' W 000°22'1717.0
2015-Mar-23 03:33N 49°48' W 000°33'4214.0
2015-Mar-23 00:33N 50°28' W 000°54'1615.7
2015-Mar-22 23:33N 50°43' W 001°00'7 6.7
2015-Mar-22 22:33N 50°49' W 001°06'0 0.0
2015-Mar-22 21:33N 50°49' W 001°06'6 5.7
2015-Mar-22 20:34N 50°44' W 001°02'1717.4
2015-Mar-22 19:33N 50°27' W 000°52'3919.3
2015-Mar-22 17:33N 49°51' W 000°33'2019.6
2015-Mar-22 16:33N 49°33' W 000°22'1615.9
2015-Mar-22 15:33N 49°17' W 000°15'0 0.0
2015-Mar-22 14:34N 49°17' W 000°15'3 3.3
2015-Mar-22 13:34N 49°21' W 000°14'1918.7
2015-Mar-22 12:33N 49°38' W 000°26'4119.5
2015-Mar-22 10:27N 50°17' W 000°45'1819.7
2015-Mar-22 09:34N 50°33' W 000°55'1615.9
2015-Mar-22 08:33N 50°47' W 001°07'1 1.3
2015-Mar-22 07:33N 50°49' W 001°06'0 0.5
2015-Mar-22 06:33N 50°49' W 001°07'1312.6
2015-Mar-22 05:34N 50°37' W 000°59'1514.8
2015-Mar-22 04:33N 50°23' W 000°51'3311.0
2015-Mar-22 01:33N 49°53' W 000°32'1110.8
2015-Mar-22 00:33N 49°42' W 000°27'1110.8
2015-Mar-21 23:34N 49°32' W 000°21'1110.8
2015-Mar-21 22:33N 49°22' W 000°15'5 4.7
2015-Mar-21 21:34N 49°17' W 000°15'0 0.0
2015-Mar-21 20:34N 49°17' W 000°15'1111.5
2015-Mar-21 19:33N 49°29' W 000°16'1817.5
2015-Mar-21 18:33N 49°45' W 000°28'3819.0
2015-Mar-21 16:32N 50°21' W 000°49'1919.7
2015-Mar-21 15:34N 50°39' W 000°58'1110.9
2015-Mar-21 14:33N 50°49' W 001°06'0 0.0
2015-Mar-21 13:33N 50°49' W 001°06'4 4.1
2015-Mar-21 12:33N 50°45' W 001°05'2020.4
2015-Mar-21 11:33N 50°27' W 000°50'2920.6
2015-Mar-21 10:10N 49°60' W 000°35'1220.2
2015-Mar-21 09:33N 49°48' W 000°29'2020.2
2015-Mar-21 08:33N 49°29' W 000°19'1211.8
2015-Mar-21 07:33N 49°17' W 000°15'0 0.0
2015-Mar-21 06:33N 49°17' W 000°15'6 5.9
2015-Mar-21 05:33N 49°23' W 000°15'1212.1
2015-Mar-21 04:33N 49°35' W 000°19'1211.8
2015-Mar-21 03:33N 49°46' W 000°25'2411.0
2015-Mar-21 01:20N 50°09' W 000°38'1114.6
2015-Mar-21 00:33N 50°19' W 000°47'1616.0
2015-Mar-20 23:33N 50°34' W 000°56'1413.8
2015-Mar-20 22:33N 50°46' W 001°05'2 2.4
2015-Mar-20 21:33N 50°49' W 001°06'0 0.0
2015-Mar-20 20:33N 50°49' W 001°06'0 0.0
2015-Mar-20 19:33N 50°49' W 001°06'5 5.4
2015-Mar-20 18:33N 50°44' W 001°02'1817.8
2015-Mar-20 17:33N 50°27' W 000°52'2319.5
2015-Mar-20 16:22N 50°06' W 000°39'1619.9
2015-Mar-20 15:33N 49°51' W 000°30'2019.5
2015-Mar-20 14:33N 49°32' W 000°20'1515.1
2015-Mar-20 13:33N 49°17' W 000°15'0 0.0
2015-Mar-20 12:33N 49°17' W 000°15'0 0.0
2015-Mar-20 11:33N 49°17' W 000°15'0 0.0
2015-Mar-20 10:33N 49°17' W 000°15'0 0.0
2015-Mar-20 09:33N 49°17' W 000°15'0 0.0
2015-Mar-20 08:33N 49°17' W 000°15'0 0.0
2015-Mar-20 07:33N 49°17' W 000°15'0 0.0
2015-Mar-20 06:33N 49°17' W 000°15'1010.0
2015-Mar-20 05:34N 49°27' W 000°18'1414.3
2015-Mar-20 04:33N 49°41' W 000°26'1111.3
2015-Mar-20 03:33N 49°51' W 000°31'4915.7
2015-Mar-20 00:28N 50°37' W 000°58'1112.5
2015-Mar-19 23:33N 50°47' W 001°06'2 1.9
2015-Mar-19 22:33N 50°49' W 001°06'0 0.0
2015-Mar-19 21:33N 50°49' W 001°06'9 9.4
2015-Mar-19 20:33N 50°40' W 000°60'4719.8
2015-Mar-19 18:10N 49°55' W 000°35'1219.7
2015-Mar-19 17:33N 49°44' W 000°29'2019.9
2015-Mar-19 16:33N 49°26' W 000°17'9 8.5
2015-Mar-19 15:34N 49°17' W 000°15'0 0.0
2015-Mar-19 14:34N 49°17' W 000°15'2 2.5
2015-Mar-19 13:33N 49°20' W 000°14'1919.4
2015-Mar-19 12:33N 49°38' W 000°24'4319.4
2015-Mar-19 10:19N 50°19' W 000°48'1519.9
2015-Mar-19 09:33N 50°33' W 000°56'1716.6
2015-Mar-19 08:33N 50°48' W 001°07'1 0.9
2015-Mar-19 07:33N 50°49' W 001°06'0 0.1
2015-Mar-19 06:34N 50°49' W 001°06'1212.1
2015-Mar-19 05:33N 50°38' W 000°58'1714.4
2015-Mar-19 04:24N 50°22' W 000°49'2611.1
2015-Mar-19 02:03N 49°57' W 000°36'611.2
2015-Mar-19 01:33N 49°52' W 000°33'1211.6
2015-Mar-19 00:33N 49°41' W 000°27'1111.1
2015-Mar-18 23:33N 49°31' W 000°21'1111.0
2015-Mar-18 22:33N 49°21' W 000°14'3 3.2
2015-Mar-18 21:34N 49°17' W 000°15'0 0.0
2015-Mar-18 20:34N 49°17' W 000°15'1212.0
2015-Mar-18 19:34N 49°29' W 000°16'1919.3
2015-Mar-18 18:34N 49°47' W 000°27'  

Dump ship's entire track history